createdAt,value
2019-03-21T00:04:00.872Z,21
2019-03-21T00:09:00.927Z,21
2019-03-21T00:14:06.785Z,22
2019-03-21T00:19:00.784Z,20
2019-03-21T00:24:00.814Z,22
2019-03-21T00:29:00.795Z,22
2019-03-21T00:34:00.804Z,23
2019-03-21T00:39:00.782Z,22
2019-03-21T00:44:00.760Z,23
2019-03-21T00:49:00.757Z,23
2019-03-21T00:54:00.738Z,23
2019-03-21T00:59:00.777Z,22
2019-03-21T01:04:00.773Z,23
2019-03-21T01:09:00.746Z,23
2019-03-21T01:14:00.755Z,24
2019-03-21T01:19:00.770Z,24
2019-03-21T01:24:00.773Z,25
2019-03-21T01:29:00.727Z,26
2019-03-21T01:34:00.703Z,26
2019-03-21T01:39:00.726Z,25
2019-03-21T01:44:00.720Z,26
2019-03-21T01:49:00.688Z,28
2019-03-21T01:54:00.708Z,27
2019-03-21T01:59:00.696Z,25
2019-03-21T02:04:00.737Z,27
2019-03-21T02:09:00.667Z,27
2019-03-21T02:14:00.646Z,25
2019-03-21T02:19:00.682Z,27
2019-03-21T02:24:00.658Z,28
2019-03-21T02:29:00.707Z,29
2019-03-21T02:34:00.638Z,28
2019-03-21T02:39:00.662Z,28
2019-03-21T02:44:00.663Z,28
2019-03-21T02:49:00.670Z,28
2019-03-21T02:54:00.641Z,28
2019-03-21T02:59:00.641Z,27
2019-03-21T03:04:00.653Z,29
2019-03-21T03:09:00.641Z,28
2019-03-21T03:14:04.103Z,28
2019-03-21T03:19:00.613Z,29
2019-03-21T03:24:00.604Z,28
2019-03-21T03:29:00.605Z,29
2019-03-21T03:34:00.611Z,27
2019-03-21T03:39:00.583Z,29
2019-03-21T03:44:00.574Z,30
2019-03-21T03:49:00.615Z,29
2019-03-21T03:54:00.543Z,28
2019-03-21T03:59:00.577Z,28
2019-03-21T04:04:00.562Z,30
2019-03-21T04:09:00.543Z,29
2019-03-21T04:14:00.551Z,29
2019-03-21T04:19:00.582Z,30
2019-03-21T04:24:00.548Z,28
2019-03-21T04:29:00.543Z,29
2019-03-21T04:34:00.527Z,29
2019-03-21T04:39:00.545Z,28
2019-03-21T04:44:00.512Z,28
2019-03-21T04:49:00.485Z,29
2019-03-21T04:54:00.528Z,30
2019-03-21T04:59:00.504Z,29
2019-03-21T05:04:00.549Z,30
2019-03-21T05:09:00.479Z,30
2019-03-21T05:14:00.475Z,29
2019-03-21T05:19:00.456Z,28
2019-03-21T05:24:00.459Z,28
2019-03-21T05:29:00.502Z,28
2019-03-21T05:34:00.518Z,28
2019-03-21T05:39:00.508Z,29
2019-03-21T05:44:00.429Z,28
2019-03-21T05:49:00.547Z,27
2019-03-21T05:54:00.472Z,27
2019-03-21T05:59:00.446Z,27
2019-03-21T06:04:00.432Z,29
2019-03-21T06:09:00.550Z,28
2019-03-21T06:14:00.427Z,28
2019-03-21T06:19:00.447Z,26
2019-03-21T06:24:00.505Z,27
2019-03-21T06:29:00.392Z,26
2019-03-21T06:34:00.377Z,27
2019-03-21T06:39:00.386Z,27
2019-03-21T06:44:00.349Z,24
2019-03-21T06:49:00.377Z,27
2019-03-21T06:54:00.368Z,28
2019-03-21T06:59:00.392Z,27
2019-03-21T07:04:07.219Z,27
2019-03-21T07:09:00.370Z,25
2019-03-21T07:14:00.368Z,26
2019-03-21T07:19:00.318Z,24
2019-03-21T07:24:00.392Z,24
2019-03-21T07:29:00.303Z,24
2019-03-21T07:34:00.326Z,25
2019-03-21T07:39:00.646Z,24
2019-03-21T07:44:00.314Z,22
2019-03-21T07:49:00.282Z,23
2019-03-21T07:54:00.309Z,22
2019-03-21T07:59:00.281Z,22
2019-03-21T08:04:02.817Z,23
2019-03-21T08:09:00.321Z,23
2019-03-21T08:14:00.285Z,23
2019-03-21T08:19:00.249Z,22
2019-03-21T08:24:00.275Z,21
2019-03-21T08:29:00.394Z,22
2019-03-21T08:34:00.237Z,22
2019-03-21T08:39:00.237Z,22
2019-03-21T08:44:00.236Z,22
2019-03-21T08:49:00.225Z,22
2019-03-21T08:54:00.233Z,20
2019-03-21T08:59:00.233Z,22
2019-03-21T09:04:00.244Z,22
2019-03-21T09:09:00.249Z,22
2019-03-21T09:14:00.216Z,22
2019-03-21T09:19:00.215Z,23
2019-03-21T09:24:00.214Z,22
2019-03-21T09:29:00.170Z,22
2019-03-21T09:34:00.201Z,23
2019-03-21T09:39:00.242Z,23
2019-03-21T09:44:00.162Z,24
2019-03-21T09:49:00.165Z,21
2019-03-21T09:54:09.187Z,22
2019-03-21T09:59:00.159Z,23
2019-03-21T10:04:00.156Z,23
2019-03-21T10:09:00.177Z,23
2019-03-21T10:14:00.145Z,22
2019-03-21T10:19:00.158Z,23
2019-03-21T10:24:00.131Z,23
2019-03-21T10:29:00.186Z,22
2019-03-21T10:34:00.123Z,23
2019-03-21T10:39:00.162Z,22
2019-03-21T10:44:00.126Z,24
2019-03-21T10:49:00.076Z,23
2019-03-21T10:54:00.104Z,23
2019-03-21T10:59:00.081Z,24
2019-03-21T11:04:00.119Z,22
2019-03-21T11:09:00.080Z,22
2019-03-21T11:14:00.075Z,22
2019-03-21T11:19:00.087Z,22
2019-03-21T11:24:00.099Z,22
2019-03-21T11:29:00.065Z,22
2019-03-21T11:34:00.046Z,21
2019-03-21T11:39:00.072Z,21
2019-03-21T11:44:00.057Z,20
2019-03-21T11:49:01.426Z,20
2019-03-21T11:54:00.031Z,22
2019-03-21T11:59:00.053Z,22
2019-03-21T12:04:00.044Z,22
2019-03-21T12:09:00.032Z,20
2019-03-21T12:14:00.058Z,21
2019-03-21T12:19:00.030Z,22
2019-03-21T12:23:59.976Z,20
2019-03-21T12:29:00.036Z,21
2019-03-21T12:34:00.012Z,22
2019-03-21T12:38:59.963Z,20
2019-03-21T12:43:59.979Z,19
2019-03-21T12:49:00.026Z,21
2019-03-21T12:54:00.025Z,20
2019-03-21T12:58:59.951Z,19
2019-03-21T13:03:59.962Z,20
2019-03-21T13:08:59.968Z,21
2019-03-21T13:13:59.944Z,20
2019-03-21T13:18:59.968Z,19
2019-03-21T13:23:59.967Z,18
2019-03-21T13:28:59.943Z,18
2019-03-21T13:33:59.974Z,18
2019-03-21T13:38:59.946Z,20
2019-03-21T13:43:59.910Z,18
2019-03-21T13:48:59.907Z,17
2019-03-21T13:53:59.948Z,16
2019-03-21T13:58:59.913Z,15
2019-03-21T14:04:01.840Z,17
2019-03-21T14:09:01.452Z,18
2019-03-21T14:13:59.911Z,15
2019-03-21T14:18:59.903Z,15
2019-03-21T14:23:59.895Z,15
2019-03-21T14:28:59.868Z,16
2019-03-21T14:33:59.905Z,16
2019-03-21T14:38:59.867Z,15
2019-03-21T14:43:59.867Z,16
2019-03-21T14:48:59.839Z,15
2019-03-21T14:53:59.827Z,15
2019-03-21T14:58:59.900Z,12
2019-03-21T15:03:59.927Z,14
2019-03-21T15:08:59.852Z,13
2019-03-21T15:13:59.855Z,12
2019-03-21T15:18:59.847Z,14
2019-03-21T15:24:00.013Z,14
2019-03-21T15:28:59.822Z,15
2019-03-21T15:33:59.825Z,15
2019-03-21T15:38:59.807Z,14
2019-03-21T15:43:59.775Z,14
2019-03-21T15:48:59.829Z,15
2019-03-21T15:53:59.898Z,15
2019-03-21T15:58:59.798Z,16
2019-03-21T16:03:59.792Z,17
2019-03-21T16:08:59.747Z,16
2019-03-21T16:13:59.773Z,16
2019-03-21T16:18:59.816Z,18
2019-03-21T16:24:05.279Z,18
2019-03-21T16:29:00.525Z,20
2019-03-21T16:34:00.541Z,20
2019-03-21T16:39:00.550Z,19
2019-03-21T16:44:00.491Z,20
2019-03-21T16:49:00.508Z,20
2019-03-21T16:54:00.509Z,18
2019-03-21T16:59:00.502Z,20
2019-03-21T17:04:01.218Z,21
2019-03-21T17:09:01.237Z,20
2019-03-21T17:14:01.229Z,21
2019-03-21T17:19:01.257Z,22
2019-03-21T17:24:01.250Z,23
2019-03-21T17:29:01.184Z,24
2019-03-21T17:34:03.930Z,23
2019-03-21T17:39:01.191Z,23
2019-03-21T17:44:01.200Z,24
2019-03-21T17:49:01.174Z,23
2019-03-21T17:54:01.152Z,23
2019-03-21T17:59:01.193Z,24
2019-03-21T18:04:01.144Z,22
2019-03-21T18:09:01.147Z,24
2019-03-21T18:14:01.201Z,23
2019-03-21T18:19:01.147Z,22
2019-03-21T18:24:01.127Z,22
2019-03-21T18:29:01.212Z,24
2019-03-21T18:34:01.111Z,23
2019-03-21T18:39:01.101Z,23
2019-03-21T18:44:01.159Z,23
2019-03-21T18:49:01.110Z,24
2019-03-21T18:54:01.100Z,23
2019-03-21T18:59:01.104Z,23
2019-03-21T19:04:01.112Z,24
2019-03-21T19:09:01.071Z,24
2019-03-21T19:14:01.120Z,23
2019-03-21T19:19:01.066Z,24
2019-03-21T19:24:01.385Z,24
2019-03-21T19:29:01.050Z,25
2019-03-21T19:34:01.074Z,26
2019-03-21T19:39:01.056Z,28
2019-03-21T19:44:01.073Z,28
2019-03-21T19:49:01.017Z,29
2019-03-21T19:54:01.017Z,29
2019-03-21T19:59:01.309Z,28
2019-03-21T20:04:01.010Z,31
2019-03-21T20:09:01.005Z,31
2019-03-21T20:14:03.667Z,31
2019-03-21T20:19:01.040Z,32
2019-03-21T20:24:01.121Z,33
2019-03-21T20:29:00.992Z,35
2019-03-21T20:34:01.011Z,37
2019-03-21T20:39:00.964Z,42
2019-03-21T20:44:00.963Z,45
2019-03-21T20:49:01.291Z,42
2019-03-21T20:54:00.971Z,40
2019-03-21T20:59:00.942Z,41
2019-03-21T21:04:01.001Z,42
2019-03-21T21:09:00.944Z,40
2019-03-21T21:14:00.952Z,37
2019-03-21T21:19:00.935Z,38
2019-03-21T21:24:00.977Z,37
2019-03-21T21:29:00.942Z,41
2019-03-21T21:34:00.924Z,37
2019-03-21T21:39:00.893Z,41
2019-03-21T21:44:00.918Z,36
2019-03-21T21:49:00.928Z,37
2019-03-21T21:54:00.914Z,37
2019-03-21T21:59:00.920Z,39
2019-03-21T22:04:04.814Z,40
2019-03-21T22:09:00.920Z,36
2019-03-21T22:14:00.895Z,37
2019-03-21T22:19:00.891Z,35
2019-03-21T22:24:00.882Z,35
2019-03-21T22:29:00.911Z,34
2019-03-21T22:34:00.879Z,35
2019-03-21T22:39:00.868Z,34
2019-03-21T22:44:00.824Z,34
2019-03-21T22:49:00.907Z,34
2019-03-21T22:54:00.875Z,33
2019-03-21T22:59:00.829Z,34
2019-03-21T23:04:02.835Z,33
2019-03-21T23:09:00.861Z,33
2019-03-21T23:14:00.807Z,33
2019-03-21T23:19:00.847Z,33
2019-03-21T23:24:00.797Z,30
2019-03-21T23:29:00.786Z,33
2019-03-21T23:34:00.842Z,32
2019-03-21T23:39:00.836Z,32
2019-03-21T23:44:00.775Z,32
2019-03-21T23:49:00.807Z,32
2019-03-21T23:54:00.838Z,32
2019-03-21T23:59:00.779Z,30
